Time;durP1;ratioP1;P1;durP2;ratioP2;P2;SDS_P1;SDS_P2;PMS_P1;PMS_P2;Temp;Humidity;BMP_temperature;BMP_pressure;BME280_temperature;BME280_humidity;BME280_pressure;Samples;Min_cycle;Max_cycle;Signal;HPM_P1;HPM_P2
2021/07/28 00:02:08;;;;;;;20.23;12.95;;;;;;;;;;5019088;28;20763;-86
2021/07/28 00:04:35;;;;;;;22.75;14.23;;;;;;;;;;5013517;28;20116;-85
2021/07/28 00:07:03;;;;;;;21.13;13.82;;;;;;;;;;5031877;28;20132;-85
2021/07/28 00:09:30;;;;;;;23.95;14.10;;;;;;;;;;5031961;28;20450;-84
2021/07/28 00:11:58;;;;;;;19.10;13.18;;;;;;;;;;5029539;28;20136;-84
2021/07/28 00:14:25;;;;;;;23.70;14.50;;;;;;;;;;5025537;28;20506;-85
2021/07/28 00:16:52;;;;;;;23.98;14.63;;;;;;;;;;5027722;28;20105;-85
2021/07/28 00:19:24;;;;;;;24.73;14.52;;;;;;;;;;5012535;28;20045;-84
2021/07/28 00:24:38;;;;;;;23.90;14.90;;;;;;;;;;5031826;28;20700;-85
2021/07/28 00:27:06;;;;;;;24.75;14.85;;;;;;;;;;5030485;28;20041;-85
2021/07/28 00:29:36;;;;;;;28.45;15.60;;;;;;;;;;5032110;28;20092;-84
2021/07/28 00:32:04;;;;;;;28.83;16.42;;;;;;;;;;5030766;28;20691;-83
2021/07/28 00:34:33;;;;;;;24.83;14.90;;;;;;;;;;5030117;28;20844;-83
2021/07/28 00:37:00;;;;;;;27.20;15.70;;;;;;;;;;5043094;28;20064;-83
2021/07/28 00:39:27;;;;;;;28.90;16.23;;;;;;;;;;5029892;28;20081;-84
2021/07/28 00:41:54;;;;;;;26.67;15.85;;;;;;;;;;5029514;28;20088;-83
2021/07/28 00:44:22;;;;;;;30.63;16.58;;;;;;;;;;5030530;28;20426;-84
2021/07/28 00:46:56;;;;;;;28.15;17.00;;;;;;;;;;5047529;28;20120;-84
2021/07/28 00:49:24;;;;;;;29.73;16.63;;;;;;;;;;5041857;28;20057;-85
2021/07/28 00:51:53;;;;;;;30.67;16.33;;;;;;;;;;5029881;28;20073;-85
2021/07/28 00:54:26;;;;;;;29.75;17.55;;;;;;;;;;5029524;28;20687;-84
2021/07/28 00:56:53;;;;;;;29.20;16.90;;;;;;;;;;5029719;28;20794;-84
2021/07/28 00:59:29;;;;;;;28.83;17.02;;;;;;;;;;5036221;28;20827;-85
2021/07/28 01:01:56;;;;;;;33.92;16.85;;;;;;;;;;5031469;28;20046;-84
2021/07/28 01:04:27;;;;;;;32.67;17.90;;;;;;;;;;5029914;28;20401;-83
2021/07/28 01:06:54;;;;;;;27.73;17.42;;;;;;;;;;5029145;28;20128;-85
2021/07/28 01:09:21;;;;;;;33.30;18.23;;;;;;;;;;5031214;28;20156;-84
2021/07/28 01:11:49;;;;;;;31.17;17.25;;;;;;;;;;5022219;28;20096;-85
2021/07/28 01:14:17;;;;;;;37.40;18.67;;;;;;;;;;5029169;28;20095;-83
2021/07/28 01:16:45;;;;;;;39.78;19.17;;;;;;;;;;5032549;28;20510;-83
2021/07/28 01:19:13;;;;;;;35.03;18.60;;;;;;;;;;5029603;28;20109;-84
2021/07/28 01:21:42;;;;;;;30.63;19.25;;;;;;;;;;5029449;28;20080;-84
2021/07/28 01:24:21;;;;;;;32.08;18.45;;;;;;;;;;5030371;28;20637;-84
2021/07/28 01:26:48;;;;;;;35.45;18.63;;;;;;;;;;5036656;28;20076;-83
2021/07/28 01:29:16;;;;;;;33.08;18.27;;;;;;;;;;5045878;28;20155;-84
2021/07/28 01:31:47;;;;;;;36.20;17.67;;;;;;;;;;5034073;28;20575;-84
2021/07/28 01:34:14;;;;;;;32.17;17.70;;;;;;;;;;5029438;28;20088;-83
2021/07/28 01:36:45;;;;;;;39.00;17.98;;;;;;;;;;5028803;28;20164;-83
2021/07/28 01:39:12;;;;;;;39.28;19.08;;;;;;;;;;5048542;28;20081;-83
2021/07/28 01:41:39;;;;;;;36.40;19.50;;;;;;;;;;5038892;28;20095;-83
2021/07/28 01:44:06;;;;;;;36.97;19.95;;;;;;;;;;5030224;28;20808;-83
2021/07/28 01:46:33;;;;;;;43.80;19.45;;;;;;;;;;5034178;28;20079;-84
2021/07/28 01:49:01;;;;;;;36.83;20.10;;;;;;;;;;5034803;28;20064;-83
2021/07/28 01:51:29;;;;;;;37.28;20.10;;;;;;;;;;5024430;28;20470;-83
2021/07/28 01:54:04;;;;;;;37.97;20.85;;;;;;;;;;5032980;28;20084;-83
2021/07/28 01:56:33;;;;;;;35.13;20.30;;;;;;;;;;5033616;28;20545;-83
2021/07/28 01:59:01;;;;;;;36.72;19.13;;;;;;;;;;5040869;28;20128;-83
2021/07/28 02:01:28;;;;;;;35.08;21.23;;;;;;;;;;5030940;28;20058;-83
2021/07/28 02:03:55;;;;;;;39.97;21.38;;;;;;;;;;5032553;28;20042;-83
2021/07/28 02:06:22;;;;;;;37.42;20.42;;;;;;;;;;5033078;28;20053;-83
2021/07/28 02:08:50;;;;;;;44.80;22.23;;;;;;;;;;5032245;28;20719;-83
2021/07/28 02:11:17;;;;;;;34.80;21.40;;;;;;;;;;5032804;28;20132;-83
2021/07/28 02:13:45;;;;;;;41.95;21.15;;;;;;;;;;5045591;28;20049;-83
2021/07/28 02:16:12;;;;;;;44.38;21.33;;;;;;;;;;5032686;28;20088;-84
2021/07/28 02:18:39;;;;;;;39.47;21.48;;;;;;;;;;5032866;28;20570;-84
2021/07/28 02:21:06;;;;;;;37.38;21.63;;;;;;;;;;5032716;28;20085;-84
2021/07/28 02:23:33;;;;;;;42.97;22.52;;;;;;;;;;5033683;28;20073;-84
2021/07/28 02:26:00;;;;;;;41.50;22.98;;;;;;;;;;5034365;28;20049;-83
2021/07/28 02:28:29;;;;;;;41.80;21.77;;;;;;;;;;5037226;28;20131;-83
2021/07/28 02:30:56;;;;;;;40.58;21.35;;;;;;;;;;5029370;28;20707;-83
2021/07/28 02:33:23;;;;;;;38.35;20.98;;;;;;;;;;5033965;28;20052;-83
2021/07/28 02:35:50;;;;;;;39.22;21.33;;;;;;;;;;5031140;28;20124;-84
2021/07/28 02:38:18;;;;;;;37.83;21.15;;;;;;;;;;5025868;28;20045;-83
2021/07/28 02:40:45;;;;;;;35.63;19.90;;;;;;;;;;5027478;28;20081;-83
2021/07/28 02:43:12;;;;;;;36.42;20.23;;;;;;;;;;5032688;28;20673;-84
2021/07/28 02:45:39;;;;;;;36.22;20.73;;;;;;;;;;5031904;28;20045;-84
2021/07/28 02:48:06;;;;;;;39.22;21.65;;;;;;;;;;5032083;28;20069;-83
2021/07/28 02:50:34;;;;;;;32.15;19.85;;;;;;;;;;5031711;28;20084;-83
2021/07/28 02:53:01;;;;;;;38.10;21.73;;;;;;;;;;5032365;28;20057;-83
2021/07/28 02:55:28;;;;;;;38.95;19.90;;;;;;;;;;5030518;28;20910;-82
2021/07/28 02:57:55;;;;;;;37.58;21.77;;;;;;;;;;5044206;28;20080;-83
2021/07/28 03:00:24;;;;;;;40.85;22.13;;;;;;;;;;5031799;28;20083;-84
2021/07/28 03:02:51;;;;;;;38.38;21.55;;;;;;;;;;5033600;28;20085;-83
2021/07/28 03:05:19;;;;;;;37.67;20.85;;;;;;;;;;5030974;28;20772;-83
2021/07/28 03:07:46;;;;;;;37.92;21.92;;;;;;;;;;5031684;28;20137;-84
2021/07/28 03:10:13;;;;;;;44.92;21.58;;;;;;;;;;5018768;28;20062;-84
2021/07/28 03:12:40;;;;;;;33.83;21.17;;;;;;;;;;5023671;28;20078;-84
2021/07/28 03:15:08;;;;;;;35.80;21.95;;;;;;;;;;5028905;28;20164;-84
2021/07/28 03:17:35;;;;;;;36.10;20.73;;;;;;;;;;5027552;28;20153;-84
2021/07/28 03:20:02;;;;;;;39.30;20.73;;;;;;;;;;5026921;28;20219;-84
2021/07/28 03:22:29;;;;;;;38.28;21.25;;;;;;;;;;5026662;28;20456;-83
2021/07/28 03:24:56;;;;;;;39.65;21.63;;;;;;;;;;5026997;28;20763;-84
2021/07/28 03:27:24;;;;;;;40.25;21.50;;;;;;;;;;5025616;28;20128;-83
2021/07/28 03:29:51;;;;;;;37.03;21.20;;;;;;;;;;5024111;28;20072;-83
2021/07/28 03:32:19;;;;;;;38.85;22.13;;;;;;;;;;5025819;28;20127;-83
2021/07/28 03:34:47;;;;;;;39.22;20.88;;;;;;;;;;5024205;28;20045;-82
2021/07/28 03:37:15;;;;;;;35.10;20.75;;;;;;;;;;5026809;28;20080;-83
2021/07/28 03:39:42;;;;;;;37.33;21.30;;;;;;;;;;5028317;28;20043;-83
2021/07/28 03:42:10;;;;;;;39.30;22.23;;;;;;;;;;5029664;28;20128;-83
2021/07/28 03:44:37;;;;;;;48.35;24.15;;;;;;;;;;5027866;28;20080;-83
2021/07/28 03:47:04;;;;;;;39.08;22.00;;;;;;;;;;5021135;28;20048;-83
2021/07/28 03:49:31;;;;;;;37.63;21.08;;;;;;;;;;5022187;28;20149;-83
2021/07/28 03:51:58;;;;;;;34.50;20.73;;;;;;;;;;5024703;28;20080;-83
2021/07/28 03:54:25;;;;;;;38.15;22.05;;;;;;;;;;5026540;28;20077;-83
2021/07/28 03:56:53;;;;;;;40.70;21.08;;;;;;;;;;5017535;28;20085;-83
2021/07/28 03:59:20;;;;;;;40.42;22.10;;;;;;;;;;5030999;28;20052;-82
2021/07/28 04:01:51;;;;;;;38.35;21.98;;;;;;;;;;5026078;28;20823;-84
2021/07/28 04:04:18;;;;;;;32.08;20.23;;;;;;;;;;5031426;28;20080;-82
2021/07/28 04:06:45;;;;;;;36.55;20.80;;;;;;;;;;5031744;28;20129;-84
2021/07/28 04:09:13;;;;;;;38.55;20.23;;;;;;;;;;5050531;28;20092;-82
2021/07/28 04:11:40;;;;;;;34.95;20.02;;;;;;;;;;5033782;28;20510;-83
2021/07/28 04:14:07;;;;;;;43.38;20.60;;;;;;;;;;5036556;28;20140;-83
2021/07/28 04:16:34;;;;;;;39.70;22.02;;;;;;;;;;5031861;28;20532;-82
2021/07/28 04:19:01;;;;;;;37.35;21.63;;;;;;;;;;5028488;28;20049;-83
2021/07/28 04:21:30;;;;;;;37.28;21.80;;;;;;;;;;5030895;28;20080;-82
2021/07/28 04:23:58;;;;;;;38.70;20.58;;;;;;;;;;5030526;28;20749;-82
2021/07/28 04:26:26;;;;;;;35.72;20.63;;;;;;;;;;5030289;28;20129;-83
2021/07/28 04:28:53;;;;;;;34.53;21.17;;;;;;;;;;5032980;28;20065;-81
2021/07/28 04:31:20;;;;;;;41.95;22.13;;;;;;;;;;5022126;28;20085;-82
2021/07/28 04:33:47;;;;;;;44.78;21.83;;;;;;;;;;5032604;28;20426;-83
2021/07/28 04:36:17;;;;;;;36.67;21.48;;;;;;;;;;5034498;28;20136;-84
2021/07/28 04:38:44;;;;;;;36.38;20.70;;;;;;;;;;5031137;28;20483;-83
2021/07/28 04:41:11;;;;;;;41.33;22.88;;;;;;;;;;5030600;28;20048;-83
2021/07/28 04:43:38;;;;;;;38.83;21.80;;;;;;;;;;5027105;28;20112;-83
2021/07/28 04:46:10;;;;;;;41.90;21.17;;;;;;;;;;5028150;28;20513;-83
2021/07/28 04:48:37;;;;;;;33.05;19.13;;;;;;;;;;5017708;28;20053;-84
2021/07/28 04:51:04;;;;;;;33.25;20.42;;;;;;;;;;5030152;28;20092;-82
2021/07/28 04:53:31;;;;;;;39.60;21.33;;;;;;;;;;5034263;28;20049;-83
2021/07/28 04:55:59;;;;;;;36.08;20.60;;;;;;;;;;5030500;28;20124;-83
2021/07/28 04:58:27;;;;;;;33.55;19.13;;;;;;;;;;5029589;28;20037;-83
2021/07/28 05:00:55;;;;;;;40.15;19.50;;;;;;;;;;5032048;28;20124;-83
2021/07/28 05:03:22;;;;;;;31.98;18.13;;;;;;;;;;5030623;28;20053;-81
2021/07/28 05:05:50;;;;;;;33.08;18.63;;;;;;;;;;5028728;28;20175;-81
2021/07/28 05:08:17;;;;;;;30.05;18.77;;;;;;;;;;5029846;28;20084;-82
2021/07/28 05:10:44;;;;;;;32.17;17.73;;;;;;;;;;5030123;28;20446;-83
2021/07/28 05:13:15;;;;;;;32.67;18.20;;;;;;;;;;5032249;28;20061;-84
2021/07/28 05:15:43;;;;;;;28.95;17.08;;;;;;;;;;5031388;28;20383;-84
2021/07/28 05:18:10;;;;;;;28.75;16.33;;;;;;;;;;5030328;28;20457;-83
2021/07/28 05:20:39;;;;;;;29.63;16.63;;;;;;;;;;5029559;28;20069;-84
2021/07/28 05:23:07;;;;;;;28.23;17.63;;;;;;;;;;5030637;28;20054;-83
2021/07/28 05:25:35;;;;;;;26.77;16.10;;;;;;;;;;5048378;28;20084;-85
2021/07/28 05:28:05;;;;;;;26.40;16.33;;;;;;;;;;5040564;28;20085;-85
2021/07/28 05:30:33;;;;;;;25.33;15.65;;;;;;;;;;5029397;28;20132;-82
2021/07/28 05:33:01;;;;;;;26.52;16.48;;;;;;;;;;5036199;28;20061;-84
2021/07/28 05:35:28;;;;;;;26.40;16.35;;;;;;;;;;5028564;28;20045;-85
2021/07/28 05:38:02;;;;;;;25.40;16.02;;;;;;;;;;5042969;28;20517;-84
2021/07/28 05:40:30;;;;;;;33.80;16.02;;;;;;;;;;5027333;28;20048;-83
2021/07/28 05:42:57;;;;;;;28.55;16.05;;;;;;;;;;5025647;28;20077;-80
2021/07/28 05:45:25;;;;;;;26.30;15.63;;;;;;;;;;5033449;28;20102;-80
2021/07/28 05:47:54;;;;;;;29.17;15.35;;;;;;;;;;5025663;28;20096;-79
2021/07/28 05:50:23;;;;;;;23.90;13.88;;;;;;;;;;5025874;28;20152;-80
2021/07/28 05:52:50;;;;;;;21.17;14.30;;;;;;;;;;5027376;28;20616;-80
2021/07/28 05:55:18;;;;;;;27.90;15.05;;;;;;;;;;5026901;28;20459;-80
2021/07/28 05:57:47;;;;;;;25.60;14.15;;;;;;;;;;5028599;28;20682;-80
2021/07/28 06:00:15;;;;;;;22.67;13.73;;;;;;;;;;5027994;28;20396;-80
2021/07/28 06:02:42;;;;;;;23.30;14.55;;;;;;;;;;5028201;28;20533;-80
2021/07/28 06:05:09;;;;;;;23.00;14.02;;;;;;;;;;5028545;28;20095;-80
2021/07/28 06:07:36;;;;;;;22.73;13.75;;;;;;;;;;5027085;28;20085;-80
2021/07/28 06:10:04;;;;;;;23.88;13.70;;;;;;;;;;5028375;28;20104;-80
2021/07/28 06:12:31;;;;;;;20.35;13.15;;;;;;;;;;5028047;28;20107;-80
2021/07/28 06:14:58;;;;;;;21.77;12.88;;;;;;;;;;5028798;28;20056;-80
2021/07/28 06:17:25;;;;;;;20.60;12.25;;;;;;;;;;5035033;28;20075;-80
2021/07/28 06:19:53;;;;;;;18.15;12.30;;;;;;;;;;5027995;28;20089;-79
2021/07/28 06:22:20;;;;;;;24.90;13.82;;;;;;;;;;5026322;28;20057;-80
2021/07/28 06:24:47;;;;;;;24.23;13.73;;;;;;;;;;5027641;28;20132;-80
2021/07/28 06:27:14;;;;;;;19.48;13.48;;;;;;;;;;5027239;28;20570;-80
2021/07/28 06:29:41;;;;;;;20.52;13.23;;;;;;;;;;5033395;28;20124;-80
2021/07/28 06:32:20;;;;;;;22.17;12.93;;;;;;;;;;5026451;28;20056;-80
2021/07/28 06:34:48;;;;;;;18.85;13.18;;;;;;;;;;5031007;28;20151;-80
2021/07/28 06:37:15;;;;;;;19.75;12.02;;;;;;;;;;5032892;28;20065;-80
2021/07/28 06:39:42;;;;;;;22.45;11.65;;;;;;;;;;5031485;28;20103;-80
2021/07/28 06:42:09;;;;;;;16.63;11.88;;;;;;;;;;5025369;28;20132;-80
2021/07/28 06:44:38;;;;;;;19.08;12.48;;;;;;;;;;5031363;28;20157;-80
2021/07/28 06:47:06;;;;;;;20.83;12.48;;;;;;;;;;5030323;28;20045;-80
2021/07/28 06:49:33;;;;;;;19.35;11.82;;;;;;;;;;5030206;28;20045;-80
2021/07/28 06:52:02;;;;;;;16.70;11.80;;;;;;;;;;5025480;28;20061;-80
2021/07/28 06:54:29;;;;;;;17.55;11.32;;;;;;;;;;5030851;28;20056;-80
2021/07/28 06:57:00;;;;;;;20.08;10.68;;;;;;;;;;5029457;28;20423;-80
2021/07/28 06:59:27;;;;;;;14.15;10.30;;;;;;;;;;5031321;28;20100;-80
2021/07/28 07:01:57;;;;;;;19.00;10.32;;;;;;;;;;5029439;28;20049;-80
2021/07/28 07:04:27;;;;;;;17.65;11.63;;;;;;;;;;5028963;28;20135;-80
2021/07/28 07:06:54;;;;;;;17.10;9.88;;;;;;;;;;5036077;28;20141;-81
2021/07/28 07:09:22;;;;;;;14.18;8.82;;;;;;;;;;5038024;28;20132;-81
2021/07/28 07:11:52;;;;;;;13.65;9.52;;;;;;;;;;5024690;28;20128;-81
2021/07/28 07:14:21;;;;;;;14.55;8.70;;;;;;;;;;5032015;28;20077;-81
2021/07/28 07:16:50;;;;;;;14.20;8.90;;;;;;;;;;5044245;28;20110;-81
2021/07/28 07:19:17;;;;;;;15.45;8.93;;;;;;;;;;5037856;28;20081;-81
2021/07/28 07:21:44;;;;;;;12.43;7.95;;;;;;;;;;5032763;28;20454;-81
2021/07/28 07:24:11;;;;;;;11.75;7.85;;;;;;;;;;5029705;28;20140;-81
2021/07/28 07:26:40;;;;;;;11.27;8.70;;;;;;;;;;5037568;28;20099;-82
2021/07/28 07:29:07;;;;;;;11.45;8.40;;;;;;;;;;5034726;28;20896;-82
2021/07/28 07:31:35;;;;;;;10.23;6.93;;;;;;;;;;5050500;28;20148;-81
2021/07/28 07:34:03;;;;;;;11.43;7.82;;;;;;;;;;5040160;28;20095;-82
2021/07/28 07:36:31;;;;;;;13.75;7.95;;;;;;;;;;5031884;28;20107;-82
2021/07/28 07:39:03;;;;;;;11.10;7.53;;;;;;;;;;5031050;28;20041;-81
2021/07/28 07:41:31;;;;;;;11.00;6.93;;;;;;;;;;5025153;28;20487;-80
2021/07/28 07:43:58;;;;;;;7.93;5.60;;;;;;;;;;5027299;28;20080;-81
2021/07/28 07:46:25;;;;;;;9.80;6.40;;;;;;;;;;5028824;28;20140;-80
2021/07/28 07:48:53;;;;;;;9.45;5.57;;;;;;;;;;5029535;28;20050;-80
2021/07/28 07:51:21;;;;;;;7.80;5.68;;;;;;;;;;5025547;28;20057;-82
2021/07/28 07:53:49;;;;;;;12.20;5.75;;;;;;;;;;5035190;28;20049;-81
2021/07/28 07:56:16;;;;;;;9.45;5.28;;;;;;;;;;5030683;28;20839;-80
2021/07/28 07:58:45;;;;;;;9.95;5.43;;;;;;;;;;5029220;28;20081;-81
2021/07/28 08:01:12;;;;;;;8.23;5.60;;;;;;;;;;5030191;28;20504;-81
2021/07/28 08:03:41;;;;;;;11.32;5.03;;;;;;;;;;5026437;28;20045;-80
2021/07/28 08:06:08;;;;;;;6.50;4.93;;;;;;;;;;5032014;28;20645;-80
2021/07/28 08:08:36;;;;;;;9.20;5.05;;;;;;;;;;5028909;28;20072;-80
2021/07/28 08:11:08;;;;;;;7.70;5.35;;;;;;;;;;5030332;28;20071;-80
2021/07/28 08:13:35;;;;;;;8.30;6.13;;;;;;;;;;5031207;28;20072;-80
2021/07/28 08:16:09;;;;;;;8.95;5.63;;;;;;;;;;5028148;28;20088;-80
2021/07/28 08:18:36;;;;;;;8.30;6.00;;;;;;;;;;5028693;28;20103;-80
2021/07/28 08:21:04;;;;;;;9.07;5.80;;;;;;;;;;5028683;28;20052;-80
2021/07/28 08:23:31;;;;;;;8.43;5.80;;;;;;;;;;5018372;28;20061;-79
2021/07/28 08:25:58;;;;;;;10.27;5.90;;;;;;;;;;5027200;28;20148;-80
2021/07/28 08:28:25;;;;;;;8.95;5.90;;;;;;;;;;5036410;28;20113;-80
2021/07/28 08:30:55;;;;;;;17.75;5.60;;;;;;;;;;5034449;28;20410;-80
2021/07/28 08:33:24;;;;;;;9.60;5.75;;;;;;;;;;5029084;28;20053;-80
2021/07/28 08:35:54;;;;;;;9.43;5.93;;;;;;;;;;5029638;28;20540;-80
2021/07/28 08:38:22;;;;;;;8.45;5.15;;;;;;;;;;5023926;28;20151;-80
2021/07/28 08:40:50;;;;;;;7.88;5.20;;;;;;;;;;5029960;28;20476;-80
2021/07/28 08:43:20;;;;;;;8.77;5.13;;;;;;;;;;5018164;28;20037;-80
2021/07/28 08:45:48;;;;;;;8.05;5.45;;;;;;;;;;5029923;28;20558;-81
2021/07/28 08:48:18;;;;;;;9.80;5.18;;;;;;;;;;5016566;28;20566;-80
2021/07/28 08:50:47;;;;;;;7.63;5.07;;;;;;;;;;5025922;28;20561;-80
2021/07/28 08:53:14;;;;;;;8.55;4.50;;;;;;;;;;5023590;28;20488;-81
2021/07/28 08:55:41;;;;;;;8.45;4.72;;;;;;;;;;5020845;28;20137;-81
2021/07/28 08:58:13;;;;;;;11.45;4.72;;;;;;;;;;5021365;28;20527;-81
2021/07/28 09:00:46;;;;;;;8.57;4.78;;;;;;;;;;5034721;28;20132;-80
2021/07/28 09:03:14;;;;;;;7.90;4.53;;;;;;;;;;5022626;28;20111;-80
2021/07/28 09:05:43;;;;;;;8.60;4.82;;;;;;;;;;5026575;28;20041;-80
2021/07/28 09:08:23;;;;;;;10.27;4.80;;;;;;;;;;5020981;28;20077;-80
2021/07/28 09:10:51;;;;;;;7.13;4.72;;;;;;;;;;5028637;28;20075;-80
2021/07/28 09:13:26;;;;;;;17.17;5.18;;;;;;;;;;5026510;28;20141;-81
2021/07/28 09:15:56;;;;;;;8.40;4.78;;;;;;;;;;5027311;28;20060;-80
2021/07/28 09:18:31;;;;;;;10.57;4.25;;;;;;;;;;5022074;28;20679;-80
2021/07/28 09:21:02;;;;;;;5.72;4.45;;;;;;;;;;5029010;28;20052;-81
2021/07/28 09:23:36;;;;;;;15.65;4.70;;;;;;;;;;5036671;28;20049;-80
2021/07/28 09:26:06;;;;;;;7.68;4.47;;;;;;;;;;5028014;28;20054;-81
2021/07/28 09:28:34;;;;;;;8.63;4.45;;;;;;;;;;5034536;28;20574;-81
2021/07/28 09:31:01;;;;;;;8.95;4.72;;;;;;;;;;5029815;28;20141;-81
2021/07/28 09:33:30;;;;;;;9.82;4.88;;;;;;;;;;5028046;28;20055;-80
2021/07/28 09:35:57;;;;;;;21.08;6.35;;;;;;;;;;5031503;28;20906;-81
2021/07/28 09:38:31;;;;;;;27.92;7.18;;;;;;;;;;5029868;28;20130;-81
2021/07/28 09:41:17;;;;;;;6.97;4.03;;;;;;;;;;5026256;28;20073;-81
2021/07/28 09:43:44;;;;;;;6.43;4.15;;;;;;;;;;5030002;28;20065;-81
2021/07/28 09:46:31;;;;;;;8.57;4.07;;;;;;;;;;5026934;28;20088;-80
2021/07/28 09:48:59;;;;;;;8.43;4.70;;;;;;;;;;5029993;28;20042;-80
2021/07/28 09:51:33;;;;;;;7.00;4.53;;;;;;;;;;5025548;28;20133;-81
2021/07/28 09:54:06;;;;;;;7.13;4.20;;;;;;;;;;5023025;28;20052;-81
2021/07/28 09:56:52;;;;;;;6.22;3.95;;;;;;;;;;5010001;28;20104;-80
2021/07/28 09:59:22;;;;;;;9.20;4.55;;;;;;;;;;5033354;28;20164;-81
2021/07/28 10:01:49;;;;;;;7.70;4.40;;;;;;;;;;5022693;28;20081;-82
2021/07/28 10:04:19;;;;;;;7.63;3.67;;;;;;;;;;5032248;28;20061;-81
2021/07/28 10:06:53;;;;;;;6.50;4.22;;;;;;;;;;5030300;28;20796;-81
2021/07/28 10:09:27;;;;;;;5.47;3.95;;;;;;;;;;5019438;28;20109;-81
2021/07/28 10:11:57;;;;;;;7.50;4.20;;;;;;;;;;5026375;28;20096;-81
2021/07/28 10:14:24;;;;;;;5.28;4.03;;;;;;;;;;5033274;28;20346;-82
2021/07/28 10:16:52;;;;;;;9.85;3.97;;;;;;;;;;5032942;28;20061;-82
2021/07/28 10:19:20;;;;;;;9.45;4.38;;;;;;;;;;5034469;28;20553;-83
2021/07/28 10:21:54;;;;;;;8.35;4.40;;;;;;;;;;5040496;28;20052;-82
2021/07/28 10:24:21;;;;;;;9.13;4.20;;;;;;;;;;5035410;28;20052;-82
2021/07/28 10:29:35;;;;;;;7.03;4.43;;;;;;;;;;4986803;28;20149;-79
2021/07/28 10:32:02;;;;;;;6.43;4.25;;;;;;;;;;4986378;28;20085;-79
2021/07/28 10:34:31;;;;;;;7.32;4.43;;;;;;;;;;4981300;28;20451;-79
2021/07/28 10:37:02;;;;;;;8.27;4.20;;;;;;;;;;4989410;28;20604;-79
2021/07/28 10:39:36;;;;;;;5.57;3.55;;;;;;;;;;4987847;28;20768;-79
2021/07/28 10:42:04;;;;;;;6.13;3.33;;;;;;;;;;4985983;28;20153;-79
2021/07/28 10:44:32;;;;;;;6.50;4.20;;;;;;;;;;4987351;28;20050;-79
2021/07/28 10:47:04;;;;;;;8.05;4.05;;;;;;;;;;4998073;28;20085;-79
2021/07/28 10:49:38;;;;;;;5.07;3.75;;;;;;;;;;4996672;28;20050;-79
2021/07/28 10:52:08;;;;;;;9.60;4.82;;;;;;;;;;4979638;28;20050;-79
2021/07/28 10:54:51;;;;;;;9.07;3.88;;;;;;;;;;4984706;28;20141;-79
2021/07/28 10:57:34;;;;;;;6.35;4.38;;;;;;;;;;4983905;28;20157;-79
2021/07/28 11:00:04;;;;;;;9.18;3.85;;;;;;;;;;4989787;28;20058;-79
2021/07/28 11:02:49;;;;;;;7.38;3.50;;;;;;;;;;4988457;28;20159;-79
2021/07/28 11:05:20;;;;;;;6.63;3.35;;;;;;;;;;4983238;28;20153;-80
2021/07/28 11:07:59;;;;;;;6.05;3.22;;;;;;;;;;4988473;28;20073;-79
2021/07/28 11:10:27;;;;;;;8.30;3.20;;;;;;;;;;4988176;28;20141;-78
2021/07/28 11:12:55;;;;;;;7.60;3.42;;;;;;;;;;4983523;28;20468;-79
2021/07/28 11:15:22;;;;;;;6.82;3.20;;;;;;;;;;4988255;28;20410;-79
2021/07/28 11:17:53;;;;;;;4.50;3.45;;;;;;;;;;4984017;28;20495;-79
2021/07/28 11:20:26;;;;;;;5.57;3.38;;;;;;;;;;4985888;28;20092;-79
2021/07/28 11:22:54;;;;;;;4.13;2.85;;;;;;;;;;4988005;28;20133;-79
2021/07/28 11:25:21;;;;;;;6.97;3.55;;;;;;;;;;4989011;28;20074;-79
2021/07/28 11:28:04;;;;;;;10.00;3.00;;;;;;;;;;4985409;28;20141;-79
2021/07/28 11:30:31;;;;;;;5.63;2.70;;;;;;;;;;4983052;28;20046;-80
2021/07/28 11:33:14;;;;;;;7.05;3.65;;;;;;;;;;4986838;28;20173;-79
2021/07/28 11:35:42;;;;;;;4.93;3.50;;;;;;;;;;4988094;28;20053;-79
2021/07/28 11:38:28;;;;;;;14.18;3.92;;;;;;;;;;4976880;28;20059;-79
2021/07/28 11:41:00;;;;;;;6.97;3.10;;;;;;;;;;4978736;28;20074;-79
2021/07/28 11:43:28;;;;;;;7.70;3.35;;;;;;;;;;4980453;28;20125;-79
2021/07/28 11:45:57;;;;;;;7.03;3.63;;;;;;;;;;4978037;28;20050;-79
2021/07/28 11:48:34;;;;;;;4.57;3.30;;;;;;;;;;4985190;28;20054;-79
2021/07/28 11:51:05;;;;;;;6.78;3.47;;;;;;;;;;4983524;28;20050;-80
2021/07/28 11:53:33;;;;;;;5.15;3.40;;;;;;;;;;4979551;28;20153;-80
2021/07/28 11:56:11;;;;;;;7.72;3.13;;;;;;;;;;4985204;28;20053;-80
2021/07/28 11:58:56;;;;;;;5.10;3.10;;;;;;;;;;4984118;28;20074;-79
2021/07/28 12:01:23;;;;;;;12.35;3.72;;;;;;;;;;4983051;28;20066;-79
2021/07/28 12:04:10;;;;;;;4.45;2.95;;;;;;;;;;4979769;28;20151;-79
2021/07/28 12:06:39;;;;;;;5.20;3.10;;;;;;;;;;4986639;28;20074;-79
2021/07/28 12:09:09;;;;;;;5.53;3.60;;;;;;;;;;4982763;28;20049;-80
2021/07/28 12:11:55;;;;;;;7.53;4.18;;;;;;;;;;4981699;28;20121;-79
2021/07/28 12:14:25;;;;;;;8.40;3.70;;;;;;;;;;4979135;28;20157;-80
2021/07/28 12:16:53;;;;;;;6.85;3.42;;;;;;;;;;4987363;28;20058;-79
2021/07/28 12:19:28;;;;;;;7.22;3.42;;;;;;;;;;4983049;28;20057;-79
2021/07/28 12:21:59;;;;;;;9.32;4.15;;;;;;;;;;4983758;28;20073;-79
2021/07/28 12:24:32;;;;;;;5.38;3.60;;;;;;;;;;4982930;28;20157;-79
2021/07/28 12:27:19;;;;;;;6.95;3.70;;;;;;;;;;4982625;28;20046;-79
2021/07/28 12:30:01;;;;;;;8.20;4.28;;;;;;;;;;4980538;28;20199;-78
2021/07/28 12:32:39;;;;;;;5.15;3.22;;;;;;;;;;4980142;28;20143;-79
2021/07/28 12:35:27;;;;;;;8.70;4.03;;;;;;;;;;4988494;28;20161;-79
2021/07/28 12:38:05;;;;;;;11.50;4.35;;;;;;;;;;4971751;28;20077;-80
2021/07/28 12:40:32;;;;;;;11.52;3.80;;;;;;;;;;4984242;28;20983;-79
2021/07/28 12:42:59;;;;;;;8.68;3.20;;;;;;;;;;4986911;28;20558;-79
2021/07/28 12:45:28;;;;;;;5.70;3.85;;;;;;;;;;4983405;28;20078;-79
2021/07/28 12:47:55;;;;;;;5.75;3.15;;;;;;;;;;4983479;28;20049;-80
2021/07/28 12:50:23;;;;;;;7.28;3.75;;;;;;;;;;4982687;28;20137;-79
2021/07/28 12:52:50;;;;;;;4.13;3.22;;;;;;;;;;4986077;28;20082;-80
2021/07/28 12:55:17;;;;;;;6.63;3.35;;;;;;;;;;4990507;28;20094;-80
2021/07/28 12:57:44;;;;;;;7.05;3.63;;;;;;;;;;4981400;28;20792;-80
2021/07/28 13:00:12;;;;;;;5.40;3.33;;;;;;;;;;4980051;28;20706;-79
2021/07/28 13:02:39;;;;;;;7.45;3.63;;;;;;;;;;4985826;28;20801;-79
2021/07/28 13:05:15;;;;;;;7.53;3.25;;;;;;;;;;4981410;28;20060;-79
2021/07/28 13:07:51;;;;;;;11.90;3.95;;;;;;;;;;4977972;28;20058;-79
2021/07/28 13:10:18;;;;;;;6.07;3.55;;;;;;;;;;4984835;28;20147;-79
2021/07/28 13:12:45;;;;;;;4.45;3.40;;;;;;;;;;4981336;28;20485;-79
2021/07/28 13:15:12;;;;;;;6.65;3.00;;;;;;;;;;4986154;28;20141;-79
2021/07/28 13:17:40;;;;;;;8.02;3.60;;;;;;;;;;4984002;28;20136;-79
2021/07/28 13:20:07;;;;;;;7.75;3.45;;;;;;;;;;4981432;28;20130;-79
2021/07/28 13:22:36;;;;;;;9.75;2.92;;;;;;;;;;4979853;28;20078;-79
2021/07/28 13:25:03;;;;;;;5.80;3.13;;;;;;;;;;4978454;28;20042;-80
2021/07/28 13:27:31;;;;;;;6.20;3.30;;;;;;;;;;4989222;28;20054;-79
2021/07/28 13:29:58;;;;;;;5.18;2.85;;;;;;;;;;4990219;28;20137;-80
2021/07/28 13:32:25;;;;;;;19.50;3.40;;;;;;;;;;4987382;28;20061;-79
2021/07/28 13:34:53;;;;;;;6.40;3.17;;;;;;;;;;4987486;28;20054;-79
2021/07/28 13:37:20;;;;;;;10.18;3.38;;;;;;;;;;4986059;28;20468;-79
2021/07/28 13:43:12;;;;;;;6.28;3.03;;;;;;;;;;4986566;28;20084;-79
2021/07/28 13:45:40;;;;;;;4.40;2.80;;;;;;;;;;4986776;28;20125;-79
2021/07/28 13:48:08;;;;;;;5.38;3.38;;;;;;;;;;4987527;28;20058;-79
2021/07/28 13:50:35;;;;;;;6.80;3.50;;;;;;;;;;4985848;28;20050;-79
2021/07/28 13:53:03;;;;;;;3.95;3.15;;;;;;;;;;4982045;28;20133;-79
2021/07/28 13:55:30;;;;;;;5.15;3.50;;;;;;;;;;4986415;28;20154;-79
2021/07/28 13:57:57;;;;;;;5.25;2.92;;;;;;;;;;4985826;28;20060;-79
2021/07/28 14:00:24;;;;;;;4.18;3.15;;;;;;;;;;4992591;28;20081;-79
2021/07/28 14:02:52;;;;;;;6.45;3.15;;;;;;;;;;5000244;28;20121;-79
2021/07/28 14:05:19;;;;;;;4.93;3.05;;;;;;;;;;4987039;28;20053;-79
2021/07/28 14:07:46;;;;;;;7.45;3.65;;;;;;;;;;4986703;28;20518;-79
2021/07/28 14:10:15;;;;;;;8.73;4.03;;;;;;;;;;4985567;28;20129;-79
2021/07/28 14:12:43;;;;;;;5.18;3.30;;;;;;;;;;4985926;28;20054;-79
2021/07/28 14:15:11;;;;;;;5.10;3.40;;;;;;;;;;4986431;28;20105;-79
2021/07/28 14:17:38;;;;;;;7.10;3.58;;;;;;;;;;4986086;28;20647;-79
2021/07/28 14:20:06;;;;;;;6.57;3.45;;;;;;;;;;4984716;28;20082;-79
2021/07/28 14:22:34;;;;;;;10.13;3.60;;;;;;;;;;4987050;28;20729;-79
2021/07/28 14:25:03;;;;;;;7.05;3.45;;;;;;;;;;4986278;28;20061;-79
2021/07/28 14:27:30;;;;;;;7.57;3.75;;;;;;;;;;4983546;28;20054;-80
2021/07/28 14:29:57;;;;;;;8.10;4.80;;;;;;;;;;4992285;28;20081;-79
2021/07/28 14:32:25;;;;;;;13.98;3.88;;;;;;;;;;4981554;28;20077;-80
2021/07/28 14:34:53;;;;;;;6.07;3.42;;;;;;;;;;4986222;28;20102;-79
2021/07/28 14:37:23;;;;;;;7.65;3.58;;;;;;;;;;4983912;28;20046;-80
2021/07/28 14:39:50;;;;;;;6.45;3.60;;;;;;;;;;4986631;28;20463;-79
2021/07/28 14:42:18;;;;;;;6.90;3.50;;;;;;;;;;4979918;28;20181;-80
2021/07/28 14:44:45;;;;;;;5.53;3.33;;;;;;;;;;4987674;28;20078;-80
2021/07/28 14:47:14;;;;;;;5.22;3.35;;;;;;;;;;4988449;28;20050;-80
2021/07/28 14:49:41;;;;;;;5.75;3.22;;;;;;;;;;4990497;28;20046;-80